createdAt,value
2023-04-02T00:00:17.396Z,88.38
2023-04-02T00:03:22.391Z,88.81
2023-04-02T00:06:33.942Z,88.50
2023-04-02T00:09:38.092Z,88.65
2023-04-02T00:12:40.691Z,88.61
2023-04-02T00:15:46.888Z,88.70
2023-04-02T00:18:54.497Z,88.57
2023-04-02T00:21:58.966Z,88.72
2023-04-02T00:25:07.805Z,88.83
2023-04-02T00:28:18.948Z,88.49
2023-04-02T00:31:21.800Z,88.69
2023-04-02T00:34:35.121Z,88.53
2023-04-02T00:37:42.106Z,88.35
2023-04-02T00:40:46.597Z,88.31
2023-04-02T00:43:52.524Z,88.42
2023-04-02T00:46:58.487Z,88.27
2023-04-02T00:50:07.460Z,88.38
2023-04-02T00:53:22.244Z,88.41
2023-04-02T00:56:31.242Z,88.28
2023-04-02T00:59:42.936Z,88.32
2023-04-02T01:03:17.237Z,88.38
2023-04-02T01:06:20.983Z,88.70
2023-04-02T01:10:11.513Z,88.78
2023-04-02T01:13:44.802Z,88.41
2023-04-02T01:16:50.500Z,88.19
2023-04-02T01:20:11.840Z,88.42
2023-04-02T01:23:25.315Z,88.09
2023-04-02T01:26:36.989Z,88.05
2023-04-02T01:29:46.973Z,88.16
2023-04-02T01:32:50.173Z,88.14
2023-04-02T01:36:05.819Z,88.12
2023-04-02T01:39:34.620Z,88.27
2023-04-02T01:42:49.562Z,88.32
2023-04-02T01:45:52.617Z,88.23
2023-04-02T01:48:56.770Z,88.10
2023-04-02T01:51:59.837Z,88.61
2023-04-02T01:55:04.600Z,88.79
2023-04-02T01:58:08.958Z,88.57
2023-04-02T02:01:18.781Z,88.73
2023-04-02T02:04:21.987Z,90.72
2023-04-02T02:07:26.148Z,91.11
2023-04-02T02:10:36.044Z,93.01
2023-04-02T02:16:42.168Z,95.18
2023-04-02T02:19:51.990Z,95.46
2023-04-02T02:22:56.400Z,96.03
2023-04-02T02:25:59.104Z,95.83
2023-04-02T02:29:07.015Z,95.79
2023-04-02T02:32:13.141Z,96.32
2023-04-02T02:35:20.672Z,96.11
2023-04-02T02:38:37.252Z,96.37
2023-04-02T02:41:47.257Z,96.18
2023-04-02T02:44:52.347Z,96.49
2023-04-02T02:47:56.681Z,96.50
2023-04-02T02:51:01.488Z,96.36
2023-04-02T02:54:05.646Z,96.60
2023-04-02T02:57:16.372Z,96.35
2023-04-02T03:00:21.039Z,96.29
2023-04-02T03:03:28.408Z,96.36
2023-04-02T03:06:31.513Z,96.54
2023-04-02T03:09:55.904Z,96.30
2023-04-02T03:13:24.666Z,96.07
2023-04-02T03:16:45.615Z,96.07
2023-04-02T03:19:58.603Z,95.86
2023-04-02T03:23:35.474Z,96.64
2023-04-02T03:26:43.053Z,96.97
2023-04-02T03:29:58.765Z,96.73
2023-04-02T03:33:06.738Z,97.24
2023-04-02T03:36:43.833Z,97.34
2023-04-02T03:39:59.466Z,97.43
2023-04-02T03:43:02.692Z,97.45
2023-04-02T03:46:40.852Z,97.51
2023-04-02T03:49:52.567Z,98.31
2023-04-02T03:52:56.970Z,98.72
2023-04-02T03:56:01.554Z,98.70
2023-04-02T03:59:21.120Z,98.63
2023-04-02T04:02:34.943Z,98.36
2023-04-02T04:05:48.359Z,98.20
2023-04-02T04:08:55.658Z,98.37
2023-04-02T04:12:20.710Z,98.71
2023-04-02T04:15:36.709Z,98.71
2023-04-02T04:19:10.985Z,98.65
2023-04-02T04:22:32.030Z,98.95
2023-04-02T04:25:35.425Z,98.89
2023-04-02T04:28:58.540Z,99.99
2023-04-02T04:32:27.536Z,100.00
2023-04-02T04:35:39.450Z,100.00
2023-04-02T04:38:55.285Z,100.00
2023-04-02T04:42:01.123Z,100.00
2023-04-02T04:45:28.045Z,100.00
2023-04-02T04:48:46.437Z,100.00
2023-04-02T04:51:57.546Z,100.00
2023-04-02T04:55:00.884Z,99.94
2023-04-02T04:58:15.099Z,100.00
2023-04-02T05:01:40.728Z,100.00
2023-04-02T05:04:50.477Z,99.61
2023-04-02T05:08:06.643Z,99.66
2023-04-02T05:11:19.464Z,100.00
2023-04-02T05:14:32.172Z,99.97
2023-04-02T05:17:36.097Z,99.77
2023-04-02T05:20:51.088Z,99.15
2023-04-02T05:23:59.168Z,98.86
2023-04-02T05:27:18.967Z,98.63
2023-04-02T05:30:24.906Z,98.22
2023-04-02T05:33:30.023Z,98.03
2023-04-02T05:36:33.390Z,97.98
2023-04-02T05:39:36.639Z,97.62
2023-04-02T05:42:43.481Z,97.37
2023-04-02T05:45:54.529Z,97.00
2023-04-02T05:49:00.193Z,97.10
2023-04-02T05:52:04.840Z,96.89
2023-04-02T05:55:13.471Z,96.53
2023-04-02T05:58:45.343Z,96.58
2023-04-02T06:02:04.698Z,96.94
2023-04-02T06:05:21.614Z,96.04
2023-04-02T06:08:36.527Z,95.97
2023-04-02T06:11:48.082Z,95.97
2023-04-02T06:14:51.560Z,95.68
2023-04-02T06:18:18.750Z,95.44
2023-04-02T06:21:22.332Z,95.10
2023-04-02T06:24:29.308Z,95.05
2023-04-02T06:27:34.306Z,94.73
2023-04-02T06:30:42.484Z,93.72
2023-04-02T06:33:45.129Z,94.18
2023-04-02T06:36:51.521Z,93.30
2023-04-02T06:39:55.353Z,93.40
2023-04-02T06:43:01.364Z,92.73
2023-04-02T06:46:33.103Z,92.38
2023-04-02T06:50:14.143Z,91.26
2023-04-02T06:53:32.055Z,91.43
2023-04-02T06:56:52.911Z,91.38
2023-04-02T06:59:55.811Z,91.14
2023-04-02T07:03:02.917Z,90.70
2023-04-02T07:06:05.908Z,89.94
2023-04-02T07:09:09.431Z,88.29
2023-04-02T07:12:13.995Z,88.45
2023-04-02T07:15:19.347Z,87.82
2023-04-02T07:18:30.424Z,88.27
2023-04-02T07:21:33.741Z,89.93
2023-04-02T07:24:36.588Z,91.01
2023-04-02T07:27:39.265Z,90.09
2023-04-02T07:30:42.304Z,90.55
2023-04-02T07:33:45.716Z,91.21
2023-04-02T07:36:49.245Z,91.94
2023-04-02T07:39:52.056Z,90.85
2023-04-02T07:42:54.606Z,90.87
2023-04-02T07:45:57.296Z,90.65
2023-04-02T07:48:59.787Z,89.89
2023-04-02T07:52:02.490Z,88.38
2023-04-02T07:55:05.450Z,88.62
2023-04-02T07:58:08.825Z,88.06
2023-04-02T08:01:18.491Z,87.49
2023-04-02T08:04:23.210Z,87.20
2023-04-02T08:07:27.625Z,85.97
2023-04-02T08:10:30.973Z,85.65
2023-04-02T08:13:33.845Z,84.16
2023-04-02T08:16:54.253Z,84.66
2023-04-02T08:20:01.062Z,84.19
2023-04-02T08:23:04.401Z,83.52
2023-04-02T08:26:07.137Z,84.34
2023-04-02T08:29:09.832Z,81.93
2023-04-02T08:32:15.712Z,82.24
2023-04-02T08:35:18.534Z,81.14
2023-04-02T08:38:22.023Z,80.40
2023-04-02T08:41:31.110Z,79.00
2023-04-02T08:44:53.917Z,76.21
2023-04-02T08:47:59.990Z,74.78
2023-04-02T08:51:04.896Z,75.75
2023-04-02T08:54:27.961Z,74.87
2023-04-02T08:57:39.143Z,74.10
2023-04-02T09:00:48.378Z,73.96
2023-04-02T09:03:55.711Z,72.26
2023-04-02T09:07:00.815Z,71.85
2023-04-02T09:10:04.498Z,71.27
2023-04-02T09:13:18.332Z,69.14
2023-04-02T09:16:34.249Z,69.18
2023-04-02T09:19:41.012Z,69.41
2023-04-02T09:22:46.302Z,68.31
2023-04-02T09:26:03.661Z,67.65
2023-04-02T09:29:13.514Z,67.08
2023-04-02T09:32:37.810Z,66.22
2023-04-02T09:35:49.523Z,62.80
2023-04-02T09:39:07.085Z,62.89
2023-04-02T09:42:36.484Z,60.78
2023-04-02T09:45:41.288Z,61.77
2023-04-02T09:48:49.801Z,61.20
2023-04-02T09:52:11.518Z,58.18
2023-04-02T09:55:27.285Z,51.46
2023-04-02T09:58:30.156Z,48.47
2023-04-02T10:01:38.924Z,45.99
2023-04-02T10:04:45.502Z,45.71
2023-04-02T10:07:53.359Z,44.05
2023-04-02T10:10:59.871Z,44.11
2023-04-02T10:14:12.120Z,45.17
2023-04-02T10:17:21.703Z,47.72
2023-04-02T10:20:27.577Z,48.12
2023-04-02T10:23:31.641Z,47.79
2023-04-02T10:26:34.048Z,46.85
2023-04-02T10:30:09.587Z,48.13
2023-04-02T10:33:21.545Z,49.13
2023-04-02T10:36:46.854Z,49.67
2023-04-02T10:39:58.676Z,47.35
2023-04-02T10:43:24.468Z,45.95
2023-04-02T10:46:52.020Z,46.65
2023-04-02T10:50:11.400Z,48.12
2023-04-02T10:53:26.965Z,49.23
2023-04-02T10:56:40.797Z,51.37
2023-04-02T11:00:16.913Z,54.50
2023-04-02T11:03:40.327Z,55.61
2023-04-02T11:06:51.813Z,56.56
2023-04-02T11:09:58.419Z,57.81
2023-04-02T11:13:22.922Z,58.84
2023-04-02T11:16:27.304Z,59.57
2023-04-02T11:19:32.369Z,59.98
2023-04-02T11:22:35.360Z,60.60
2023-04-02T11:25:37.980Z,61.11
2023-04-02T11:28:41.346Z,60.25
2023-04-02T11:31:45.652Z,60.56
2023-04-02T11:34:53.806Z,60.85
2023-04-02T11:38:11.601Z,60.21
2023-04-02T11:41:14.351Z,59.63
2023-04-02T11:44:24.336Z,59.14
2023-04-02T11:47:28.753Z,56.55
2023-04-02T11:50:35.966Z,57.08
2023-04-02T11:53:42.691Z,56.30
2023-04-02T11:56:53.096Z,57.79
2023-04-02T12:00:21.987Z,57.42
2023-04-02T12:03:52.733Z,57.92
2023-04-02T12:07:20.049Z,56.82
2023-04-02T12:10:34.803Z,55.25
2023-04-02T12:13:40.486Z,53.66
2023-04-02T12:16:43.307Z,54.05
2023-04-02T12:19:52.524Z,56.37
2023-04-02T12:22:56.773Z,61.30
2023-04-02T12:26:08.527Z,61.94
2023-04-02T12:29:28.593Z,62.52
2023-04-02T12:32:31.555Z,61.64
2023-04-02T12:35:36.661Z,62.58
2023-04-02T12:38:54.179Z,62.69
2023-04-02T12:41:57.428Z,63.42
2023-04-02T12:45:01.294Z,64.01
2023-04-02T12:48:06.181Z,64.37
2023-04-02T12:51:10.731Z,64.13
2023-04-02T12:54:17.629Z,64.52
2023-04-02T12:57:26.678Z,64.45
2023-04-02T13:00:31.540Z,63.61
2023-04-02T13:03:33.963Z,63.94
2023-04-02T13:06:37.091Z,63.37
2023-04-02T13:09:47.786Z,63.43
2023-04-02T13:12:56.623Z,64.19
2023-04-02T13:16:07.788Z,65.08
2023-04-02T13:19:21.102Z,64.88
2023-04-02T13:22:31.995Z,64.88
2023-04-02T13:25:39.652Z,65.70
2023-04-02T13:28:42.219Z,66.62
2023-04-02T13:31:45.204Z,66.63
2023-04-02T13:34:47.616Z,67.05
2023-04-02T13:37:50.414Z,66.12
2023-04-02T13:40:52.805Z,66.76
2023-04-02T13:43:57.425Z,67.56
2023-04-02T13:47:00.836Z,67.75
2023-04-02T13:50:03.782Z,68.14
2023-04-02T13:53:10.638Z,68.05
2023-04-02T13:56:13.714Z,67.53
2023-04-02T13:59:16.586Z,68.58
2023-04-02T14:02:24.112Z,67.40
2023-04-02T14:05:55.254Z,66.63
2023-04-02T14:09:14.036Z,66.58
2023-04-02T14:12:19.930Z,66.48
2023-04-02T14:15:28.166Z,66.86
2023-04-02T14:18:36.727Z,66.35
2023-04-02T14:22:06.628Z,67.13
2023-04-02T14:25:21.663Z,72.85
2023-04-02T14:29:03.413Z,76.49
2023-04-02T14:32:29.128Z,79.04
2023-04-02T14:35:38.221Z,83.84
2023-04-02T14:39:08.592Z,87.95
2023-04-02T14:42:16.709Z,87.56
2023-04-02T14:45:53.439Z,88.84
2023-04-02T14:49:07.221Z,88.97
2023-04-02T14:52:16.081Z,89.73
2023-04-02T14:55:31.360Z,90.82
2023-04-02T14:58:42.893Z,89.39
2023-04-02T15:01:49.292Z,89.74
2023-04-02T15:05:01.182Z,88.70
2023-04-02T15:08:04.088Z,89.13
2023-04-02T15:11:32.453Z,89.85
2023-04-02T15:14:40.327Z,90.68
2023-04-02T15:17:43.025Z,89.20
2023-04-02T15:21:31.428Z,89.09
2023-04-02T15:24:43.437Z,87.11
2023-04-02T15:28:24.296Z,87.66
2023-04-02T15:31:28.314Z,88.33
2023-04-02T15:34:35.534Z,88.30
2023-04-02T15:37:59.979Z,88.51
2023-04-02T15:41:23.621Z,88.91
2023-04-02T15:44:26.731Z,88.73
2023-04-02T15:47:54.236Z,88.78
2023-04-02T15:51:23.794Z,89.06
2023-04-02T15:54:28.932Z,88.99
2023-04-02T15:58:02.508Z,88.46
2023-04-02T16:01:33.690Z,89.12
2023-04-02T16:05:01.462Z,89.30
2023-04-02T16:08:33.591Z,89.73
2023-04-02T16:11:36.846Z,89.62
2023-04-02T16:14:41.263Z,89.84
2023-04-02T16:17:49.149Z,90.15
2023-04-02T16:20:54.532Z,89.36
2023-04-02T16:23:57.377Z,88.88
2023-04-02T16:27:32.057Z,89.25
2023-04-02T16:30:51.306Z,89.38
2023-04-02T16:34:41.446Z,89.56
2023-04-02T16:37:56.334Z,89.83
2023-04-02T16:41:31.349Z,89.36
2023-04-02T16:45:03.104Z,90.10
2023-04-02T16:48:25.856Z,90.51
2023-04-02T16:51:49.047Z,90.60
2023-04-02T16:55:12.982Z,90.85
2023-04-02T16:58:43.775Z,91.91
2023-04-02T17:01:59.820Z,91.34
2023-04-02T17:05:12.676Z,91.31
2023-04-02T17:08:24.982Z,91.62
2023-04-02T17:11:49.577Z,91.25
2023-04-02T17:15:24.804Z,91.34
2023-04-02T17:18:32.952Z,90.82
2023-04-02T17:21:36.128Z,89.64
2023-04-02T17:24:51.585Z,89.25
2023-04-02T17:27:57.892Z,89.35
2023-04-02T17:31:01.749Z,88.32
2023-04-02T17:34:14.062Z,88.42
2023-04-02T17:37:27.705Z,87.22
2023-04-02T17:40:48.747Z,88.14
2023-04-02T17:44:02.765Z,87.84
2023-04-02T17:47:40.826Z,88.39
2023-04-02T17:51:01.708Z,89.53
2023-04-02T17:54:27.755Z,89.55
2023-04-02T17:57:39.625Z,89.97
2023-04-02T18:00:51.493Z,89.80
2023-04-02T18:04:02.708Z,90.27
2023-04-02T18:07:19.893Z,90.55
2023-04-02T18:10:22.706Z,90.42
2023-04-02T18:13:25.363Z,90.41
2023-04-02T18:16:45.271Z,90.11
2023-04-02T18:19:53.939Z,90.69
2023-04-02T18:23:00.064Z,90.34
2023-04-02T18:26:24.078Z,90.86
2023-04-02T18:29:42.192Z,91.12
2023-04-02T18:33:30.974Z,90.77
2023-04-02T18:37:00.998Z,91.85
2023-04-02T18:40:22.371Z,90.68
2023-04-02T18:43:34.042Z,86.51
2023-04-02T18:46:50.426Z,84.97
2023-04-02T18:50:35.747Z,82.94
2023-04-02T18:53:38.635Z,81.04
2023-04-02T18:56:42.838Z,82.43
2023-04-02T18:59:51.950Z,81.61
2023-04-02T19:03:02.043Z,82.13
2023-04-02T19:06:09.372Z,82.09
2023-04-02T19:09:18.975Z,81.91
2023-04-02T19:12:23.614Z,81.23
2023-04-02T19:15:50.917Z,82.36
2023-04-02T19:19:11.819Z,81.02
2023-04-02T19:22:38.932Z,82.44
2023-04-02T19:25:59.018Z,81.09
2023-04-02T19:29:01.702Z,81.51
2023-04-02T19:32:22.474Z,81.31
2023-04-02T19:35:34.764Z,80.42
2023-04-02T19:39:04.814Z,80.86
2023-04-02T19:42:15.802Z,80.34
2023-04-02T19:45:32.171Z,80.60
2023-04-02T19:48:57.915Z,81.43
2023-04-02T19:52:00.595Z,80.07
2023-04-02T19:55:03.697Z,81.01
2023-04-02T19:58:17.654Z,81.59
2023-04-02T20:01:22.879Z,80.94
2023-04-02T20:04:25.633Z,81.71
2023-04-02T20:07:30.970Z,80.47
2023-04-02T20:10:33.763Z,81.33
2023-04-02T20:13:36.235Z,80.90
2023-04-02T20:16:39.335Z,80.88
2023-04-02T20:19:42.090Z,80.44
2023-04-02T20:22:44.823Z,80.64
2023-04-02T20:25:54.936Z,80.32
2023-04-02T20:28:57.615Z,80.50
2023-04-02T20:31:59.978Z,79.88
2023-04-02T20:35:03.408Z,79.98
2023-04-02T20:38:08.068Z,79.68
2023-04-02T20:41:11.287Z,79.84
2023-04-02T20:44:13.876Z,79.49
2023-04-02T20:47:16.800Z,79.18
2023-04-02T20:50:19.213Z,79.36
2023-04-02T20:53:22.081Z,79.80
2023-04-02T20:56:24.790Z,79.42
2023-04-02T20:59:27.404Z,78.95
2023-04-02T21:02:31.709Z,79.35
2023-04-02T21:05:34.586Z,79.80
2023-04-02T21:08:37.111Z,79.19
2023-04-02T21:11:40.588Z,79.45
2023-04-02T21:14:42.978Z,79.55
2023-04-02T21:17:45.722Z,79.43
2023-04-02T21:20:59.984Z,80.97
2023-04-02T21:24:05.515Z,80.07
2023-04-02T21:27:07.843Z,80.24
2023-04-02T21:30:11.299Z,80.04
2023-04-02T21:33:13.813Z,80.54
2023-04-02T21:36:25.350Z,79.95
2023-04-02T21:39:27.851Z,79.59
2023-04-02T21:42:30.673Z,78.71
2023-04-02T21:45:33.121Z,79.67
2023-04-02T21:48:36.305Z,78.46
2023-04-02T21:51:41.265Z,79.77
2023-04-02T21:54:43.924Z,78.75
2023-04-02T21:57:46.392Z,79.10
2023-04-02T22:00:49.150Z,78.38
2023-04-02T22:03:52.103Z,78.72
2023-04-02T22:06:54.978Z,78.56
2023-04-02T22:09:57.877Z,78.83
2023-04-02T22:13:00.220Z,78.94
2023-04-02T22:16:06.799Z,77.87
2023-04-02T22:19:15.299Z,78.12
2023-04-02T22:22:17.966Z,79.67
2023-04-02T22:25:20.466Z,78.60
2023-04-02T22:28:23.391Z,78.46
2023-04-02T22:31:28.370Z,78.54
2023-04-02T22:34:31.463Z,78.88
2023-04-02T22:37:34.044Z,79.12
2023-04-02T22:40:37.308Z,79.37
2023-04-02T22:43:41.109Z,79.47
2023-04-02T22:46:43.914Z,79.89
2023-04-02T22:49:46.401Z,79.33
2023-04-02T22:52:49.298Z,81.24
2023-04-02T22:55:52.919Z,80.67
2023-04-02T22:58:55.901Z,80.84
2023-04-02T23:02:00.403Z,80.68
2023-04-02T23:05:03.871Z,81.29
2023-04-02T23:08:07.060Z,81.53
2023-04-02T23:11:14.491Z,81.92
2023-04-02T23:14:16.903Z,81.84
2023-04-02T23:17:20.140Z,81.62
2023-04-02T23:20:22.734Z,82.66
2023-04-02T23:23:26.372Z,83.74
2023-04-02T23:26:31.565Z,84.57
2023-04-02T23:29:34.275Z,85.01
2023-04-02T23:32:36.617Z,86.02
2023-04-02T23:35:39.301Z,86.41
2023-04-02T23:38:41.757Z,87.26
2023-04-02T23:41:44.448Z,87.32
2023-04-02T23:44:46.894Z,87.31
2023-04-02T23:47:49.785Z,86.68
2023-04-02T23:50:52.205Z,87.11
2023-04-02T23:53:58.008Z,87.39
2023-04-02T23:57:00.445Z,87.25
